createdAt,value
2022-09-26T00:01:25.412Z,10.19
2022-09-26T00:03:57.688Z,10.20
2022-09-26T00:06:26.827Z,10.25
2022-09-26T00:08:55.249Z,10.21
2022-09-26T00:11:26.841Z,10.24
2022-09-26T00:13:57.389Z,10.24
2022-09-26T00:16:26.486Z,10.17
2022-09-26T00:18:57.629Z,10.13
2022-09-26T00:21:27.050Z,10.13
2022-09-26T00:23:55.296Z,10.08
2022-09-26T00:26:24.695Z,9.98
2022-09-26T00:28:53.962Z,9.89
2022-09-26T00:31:25.606Z,9.93
2022-09-26T00:33:55.175Z,9.83
2022-09-26T00:36:37.097Z,9.69
2022-09-26T00:39:07.022Z,9.49
2022-09-26T00:41:35.307Z,9.32
2022-09-26T00:44:03.410Z,9.39
2022-09-26T00:46:35.120Z,9.36
2022-09-26T00:49:24.602Z,9.19
2022-09-26T00:51:56.002Z,9.16
2022-09-26T00:54:24.773Z,9.14
2022-09-26T00:56:56.814Z,9.15
2022-09-26T00:59:28.066Z,9.22
2022-09-26T01:01:59.064Z,9.29
2022-09-26T01:04:30.067Z,9.35
2022-09-26T01:07:00.325Z,9.36
2022-09-26T01:09:29.656Z,9.30
2022-09-26T01:11:58.143Z,9.27
2022-09-26T01:14:26.267Z,9.26
2022-09-26T01:16:54.350Z,9.19
2022-09-26T01:19:27.170Z,9.16
2022-09-26T01:22:28.058Z,9.07
2022-09-26T01:25:08.282Z,9.06
2022-09-26T01:27:48.216Z,9.09
2022-09-26T01:30:21.418Z,9.08
2022-09-26T01:33:03.688Z,9.15
2022-09-26T01:36:02.626Z,9.21
2022-09-26T01:38:48.406Z,9.26
2022-09-26T01:41:32.165Z,9.27
2022-09-26T01:44:08.182Z,9.31
2022-09-26T01:46:45.394Z,9.25
2022-09-26T01:49:19.620Z,9.27
2022-09-26T01:51:52.692Z,9.28
2022-09-26T01:54:24.328Z,9.31
2022-09-26T01:56:54.520Z,9.27
2022-09-26T01:59:28.226Z,9.35
2022-09-26T02:02:03.897Z,9.32
2022-09-26T02:04:37.922Z,9.31
2022-09-26T02:07:13.456Z,9.36
2022-09-26T02:09:45.718Z,9.37
2022-09-26T02:12:20.445Z,9.38
2022-09-26T02:14:49.962Z,9.32
2022-09-26T02:17:24.298Z,9.29
2022-09-26T02:19:57.761Z,9.27
2022-09-26T02:22:30.583Z,9.21
2022-09-26T02:24:58.666Z,9.14
2022-09-26T02:27:27.324Z,9.09
2022-09-26T02:29:55.745Z,8.97
2022-09-26T02:32:29.027Z,8.91
2022-09-26T02:34:57.911Z,9.07
2022-09-26T02:37:28.783Z,9.12
2022-09-26T02:39:58.029Z,9.22
2022-09-26T02:42:33.873Z,9.23
2022-09-26T02:45:26.404Z,9.19
2022-09-26T02:48:18.353Z,9.16
2022-09-26T02:51:00.836Z,9.10
2022-09-26T02:53:48.718Z,8.99
2022-09-26T02:56:27.879Z,9.05
2022-09-26T02:58:59.651Z,9.15
2022-09-26T03:01:40.062Z,9.17
2022-09-26T03:04:15.235Z,9.17
2022-09-26T03:06:47.302Z,9.18
2022-09-26T03:09:18.161Z,9.20
2022-09-26T03:11:48.370Z,9.19
2022-09-26T03:14:18.963Z,9.18
2022-09-26T03:16:51.014Z,9.14
2022-09-26T03:19:27.390Z,9.17
2022-09-26T03:21:55.547Z,9.21
2022-09-26T03:24:24.451Z,9.20
2022-09-26T03:26:53.007Z,9.20
2022-09-26T03:29:20.928Z,9.13
2022-09-26T03:31:50.335Z,9.15
2022-09-26T03:34:22.059Z,9.14
2022-09-26T03:36:51.305Z,9.06
2022-09-26T03:39:19.404Z,9.01
2022-09-26T03:41:57.484Z,8.91
2022-09-26T03:44:30.023Z,8.81
2022-09-26T03:47:13.494Z,8.76
2022-09-26T03:49:45.297Z,8.67
2022-09-26T03:52:14.253Z,8.55
2022-09-26T03:54:44.186Z,8.55
2022-09-26T03:57:13.330Z,8.58
2022-09-26T03:59:47.971Z,8.64
2022-09-26T04:02:18.220Z,8.71
2022-09-26T04:04:51.344Z,8.78
2022-09-26T04:07:19.349Z,8.78
2022-09-26T04:09:47.481Z,8.83
2022-09-26T04:12:15.369Z,8.82
2022-09-26T04:14:45.189Z,8.89
2022-09-26T04:17:13.793Z,8.84
2022-09-26T04:19:44.832Z,8.89
2022-09-26T04:22:15.293Z,8.85
2022-09-26T04:24:44.542Z,8.83
2022-09-26T04:27:15.442Z,8.78
2022-09-26T04:29:45.707Z,8.86
2022-09-26T04:32:32.290Z,8.96
2022-09-26T04:35:20.354Z,8.92
2022-09-26T04:37:51.556Z,8.96
2022-09-26T04:40:19.486Z,8.96
2022-09-26T04:43:14.074Z,8.92
2022-09-26T04:45:43.236Z,8.97
2022-09-26T04:48:11.530Z,8.92
2022-09-26T04:50:45.827Z,8.86
2022-09-26T04:53:16.133Z,8.87
2022-09-26T04:55:54.803Z,8.93
2022-09-26T04:58:22.770Z,8.92
2022-09-26T05:00:50.851Z,8.86
2022-09-26T05:03:29.544Z,8.85
2022-09-26T05:05:58.026Z,8.86
2022-09-26T05:08:27.418Z,8.81
2022-09-26T05:10:57.198Z,8.90
2022-09-26T05:13:27.455Z,8.90
2022-09-26T05:15:56.010Z,8.99
2022-09-26T05:18:24.284Z,8.99
2022-09-26T05:20:52.787Z,8.98
2022-09-26T05:23:40.850Z,9.01
2022-09-26T05:26:21.279Z,8.97
2022-09-26T05:28:52.252Z,9.04
2022-09-26T05:31:26.182Z,9.08
2022-09-26T05:33:56.634Z,9.14
2022-09-26T05:36:24.754Z,9.17
2022-09-26T05:38:53.310Z,9.22
2022-09-26T05:41:23.023Z,9.22
2022-09-26T05:43:52.147Z,9.20
2022-09-26T05:46:20.014Z,9.25
2022-09-26T05:48:51.673Z,9.31
2022-09-26T05:51:23.459Z,9.35
2022-09-26T05:53:51.592Z,9.37
2022-09-26T05:56:25.830Z,9.41
2022-09-26T05:59:14.162Z,9.54
2022-09-26T06:02:08.223Z,9.62
2022-09-26T06:05:02.355Z,9.67
2022-09-26T06:07:48.834Z,9.73
2022-09-26T06:10:34.024Z,9.85
2022-09-26T06:13:04.152Z,9.79
2022-09-26T06:15:36.418Z,9.81
2022-09-26T06:18:06.054Z,9.76
2022-09-26T06:20:35.005Z,9.72
2022-09-26T06:23:04.199Z,9.70
2022-09-26T06:25:33.196Z,9.66
2022-09-26T06:28:05.579Z,9.67
2022-09-26T06:30:33.783Z,9.60
2022-09-26T06:33:13.033Z,9.54
2022-09-26T06:36:01.388Z,9.54
2022-09-26T06:38:34.892Z,9.48
2022-09-26T06:41:04.121Z,9.47
2022-09-26T06:43:33.913Z,9.43
2022-09-26T06:46:10.487Z,9.48
2022-09-26T06:48:49.766Z,9.56
2022-09-26T06:51:22.856Z,9.63
2022-09-26T06:53:50.648Z,9.66
2022-09-26T06:56:22.050Z,9.67
2022-09-26T06:58:51.404Z,9.73
2022-09-26T07:01:23.710Z,9.83
2022-09-26T07:04:02.602Z,9.85
2022-09-26T07:06:39.434Z,9.90
2022-09-26T07:09:12.245Z,10.00
2022-09-26T07:12:14.798Z,10.08
2022-09-26T07:14:47.934Z,10.14
2022-09-26T07:17:30.285Z,10.25
2022-09-26T07:20:26.975Z,10.27
2022-09-26T07:23:22.689Z,10.37
2022-09-26T07:25:51.958Z,10.51
2022-09-26T07:28:19.919Z,10.59
2022-09-26T07:30:51.415Z,10.70
2022-09-26T07:33:48.510Z,10.79
2022-09-26T07:36:18.398Z,10.87
2022-09-26T07:38:48.460Z,11.02
2022-09-26T07:41:17.986Z,11.16
2022-09-26T07:44:46.000Z,11.24
2022-09-26T07:46:54.271Z,11.31
2022-09-26T07:49:40.517Z,11.46
2022-09-26T07:52:12.288Z,11.64
2022-09-26T07:54:52.041Z,11.82
2022-09-26T07:57:41.667Z,11.89
2022-09-26T08:00:40.236Z,12.08
2022-09-26T08:03:35.678Z,12.11
2022-09-26T08:06:12.304Z,12.33
2022-09-26T08:08:41.331Z,12.38
2022-09-26T08:11:28.292Z,12.58
2022-09-26T08:14:09.951Z,12.49
2022-09-26T08:16:48.009Z,12.42
2022-09-26T08:19:17.740Z,12.36
2022-09-26T08:21:46.517Z,12.55
2022-09-26T08:24:14.691Z,12.82
2022-09-26T08:27:07.660Z,12.84
2022-09-26T08:29:39.236Z,12.81
2022-09-26T08:32:07.202Z,13.03
2022-09-26T08:34:38.963Z,13.06
2022-09-26T08:37:38.214Z,13.23
2022-09-26T08:40:33.674Z,13.15
2022-09-26T08:43:43.995Z,13.21
2022-09-26T08:46:46.139Z,13.28
2022-09-26T08:49:44.229Z,13.44
2022-09-26T08:52:31.361Z,13.42
2022-09-26T08:55:03.062Z,13.41
2022-09-26T08:57:37.612Z,13.28
2022-09-26T09:00:19.096Z,13.10
2022-09-26T09:03:05.503Z,13.08
2022-09-26T09:05:40.965Z,13.17
2022-09-26T09:08:14.663Z,13.20
2022-09-26T09:11:04.284Z,13.26
2022-09-26T09:13:45.606Z,13.43
2022-09-26T09:16:56.420Z,13.56
2022-09-26T09:19:46.808Z,13.63
2022-09-26T09:23:01.765Z,13.84
2022-09-26T09:25:42.935Z,14.14
2022-09-26T09:28:24.694Z,14.07
2022-09-26T09:30:57.659Z,14.33
2022-09-26T09:33:32.911Z,14.33
2022-09-26T09:36:25.895Z,14.34
2022-09-26T09:39:20.825Z,14.25
2022-09-26T09:41:59.167Z,14.37
2022-09-26T09:44:36.900Z,14.52
2022-09-26T09:47:12.613Z,14.29
2022-09-26T09:49:41.022Z,14.07
2022-09-26T09:52:21.404Z,14.11
2022-09-26T09:55:06.963Z,14.20
2022-09-26T09:57:58.068Z,14.27
2022-09-26T10:00:27.652Z,14.19
2022-09-26T10:03:17.877Z,14.15
2022-09-26T10:05:48.098Z,14.02
2022-09-26T10:08:31.296Z,14.13
2022-09-26T10:11:28.500Z,14.30
2022-09-26T10:14:28.634Z,14.31
2022-09-26T10:17:20.239Z,14.34
2022-09-26T10:20:10.183Z,14.27
2022-09-26T10:22:45.398Z,14.18
2022-09-26T10:25:26.626Z,14.34
2022-09-26T10:27:59.176Z,14.39
2022-09-26T10:30:33.150Z,14.49
2022-09-26T10:33:06.095Z,14.79
2022-09-26T10:35:49.008Z,14.94
2022-09-26T10:38:23.869Z,14.88
2022-09-26T10:40:59.720Z,14.89
2022-09-26T10:43:33.896Z,14.87
2022-09-26T10:46:33.353Z,14.71
2022-09-26T10:49:25.107Z,14.57
2022-09-26T10:52:28.920Z,14.79
2022-09-26T10:55:03.793Z,14.91
2022-09-26T10:57:37.466Z,14.92
2022-09-26T11:00:09.076Z,15.32
2022-09-26T11:02:37.651Z,15.32
2022-09-26T11:05:24.667Z,15.20
2022-09-26T11:08:10.122Z,15.21
2022-09-26T11:10:55.674Z,15.14
2022-09-26T11:13:47.864Z,15.22
2022-09-26T11:16:20.169Z,15.31
2022-09-26T11:19:02.444Z,15.21
2022-09-26T11:21:41.217Z,15.56
2022-09-26T11:24:16.815Z,15.40
2022-09-26T11:26:53.431Z,15.20
2022-09-26T11:29:33.293Z,15.23
2022-09-26T11:32:10.408Z,15.05
2022-09-26T11:35:02.139Z,15.48
2022-09-26T11:38:00.023Z,15.91
2022-09-26T11:40:48.644Z,16.18
2022-09-26T11:43:35.169Z,15.96
2022-09-26T11:46:33.060Z,16.13
2022-09-26T11:49:39.098Z,16.85
2022-09-26T11:52:53.576Z,16.54
2022-09-26T11:55:31.004Z,16.67
2022-09-26T11:58:11.614Z,17.02
2022-09-26T12:00:49.843Z,16.90
2022-09-26T12:03:39.971Z,16.72
2022-09-26T12:06:21.327Z,16.22
2022-09-26T12:09:10.642Z,16.17
2022-09-26T12:11:49.724Z,16.02
2022-09-26T12:14:35.298Z,16.08
2022-09-26T12:17:12.799Z,15.95
2022-09-26T12:19:46.898Z,15.84
2022-09-26T12:22:31.156Z,15.71
2022-09-26T12:25:20.318Z,15.89
2022-09-26T12:27:59.096Z,15.85
2022-09-26T12:30:33.402Z,16.05
2022-09-26T12:33:27.673Z,15.80
2022-09-26T12:36:06.624Z,15.66
2022-09-26T12:39:00.613Z,15.59
2022-09-26T12:41:45.740Z,15.51
2022-09-26T12:44:37.068Z,15.34
2022-09-26T12:47:40.372Z,15.39
2022-09-26T12:50:18.118Z,15.15
2022-09-26T12:53:17.267Z,15.03
2022-09-26T12:55:53.635Z,14.89
2022-09-26T12:58:34.543Z,14.72
2022-09-26T13:01:11.967Z,14.62
2022-09-26T13:04:02.593Z,14.62
2022-09-26T13:07:17.207Z,14.55
2022-09-26T13:10:03.959Z,14.55
2022-09-26T13:12:51.154Z,14.56
2022-09-26T13:15:26.177Z,14.57
2022-09-26T13:17:59.348Z,14.55
2022-09-26T13:20:32.599Z,14.67
2022-09-26T13:23:07.811Z,14.71
2022-09-26T13:25:49.334Z,14.74
2022-09-26T13:28:24.203Z,14.68
2022-09-26T13:30:57.958Z,14.70
2022-09-26T13:33:32.382Z,14.72
2022-09-26T13:36:03.462Z,14.61
2022-09-26T13:38:51.548Z,14.63
2022-09-26T13:41:33.878Z,14.71
2022-09-26T13:44:13.107Z,14.80
2022-09-26T13:46:52.264Z,14.92
2022-09-26T13:49:33.804Z,14.96
2022-09-26T13:52:20.128Z,15.00
2022-09-26T13:54:58.982Z,14.90
2022-09-26T13:57:46.486Z,14.76
2022-09-26T14:00:49.128Z,14.73
2022-09-26T14:03:39.133Z,14.68
2022-09-26T14:06:34.158Z,14.70
2022-09-26T14:09:27.043Z,14.69
2022-09-26T14:12:22.364Z,14.67
2022-09-26T14:15:15.382Z,14.72
2022-09-26T14:18:12.473Z,14.57
2022-09-26T14:20:57.459Z,14.53
2022-09-26T14:23:37.577Z,14.40
2022-09-26T14:26:07.582Z,14.39
2022-09-26T14:28:37.110Z,14.32
2022-09-26T14:31:44.048Z,14.29
2022-09-26T14:34:21.067Z,14.18
2022-09-26T14:36:51.753Z,14.06
2022-09-26T14:39:35.469Z,14.11
2022-09-26T14:42:20.207Z,14.20
2022-09-26T14:44:58.932Z,14.22
2022-09-26T14:47:29.542Z,14.23
2022-09-26T14:50:03.152Z,14.14
2022-09-26T14:52:33.893Z,14.03
2022-09-26T14:55:06.155Z,13.98
2022-09-26T14:57:35.886Z,13.97
2022-09-26T15:00:05.128Z,13.89
2022-09-26T15:02:43.744Z,13.80
2022-09-26T15:05:23.369Z,13.82
2022-09-26T15:07:53.921Z,13.89
2022-09-26T15:10:26.142Z,13.81
2022-09-26T15:13:10.775Z,13.81
2022-09-26T15:15:51.672Z,13.75
2022-09-26T15:18:31.308Z,13.76
2022-09-26T15:21:05.102Z,13.75
2022-09-26T15:23:45.352Z,13.76
2022-09-26T15:26:15.746Z,13.75
2022-09-26T15:28:44.192Z,13.81
2022-09-26T15:31:26.868Z,13.70
2022-09-26T15:34:02.519Z,13.65
2022-09-26T15:36:33.235Z,13.69
2022-09-26T15:39:08.261Z,13.62
2022-09-26T15:42:03.023Z,13.64
2022-09-26T15:44:35.486Z,13.66
2022-09-26T15:47:27.278Z,13.65
2022-09-26T15:50:04.925Z,13.81
2022-09-26T15:52:35.291Z,13.71
2022-09-26T15:55:33.623Z,13.74
2022-09-26T15:58:06.671Z,13.67
2022-09-26T16:00:38.180Z,13.65
2022-09-26T16:03:34.414Z,13.73
2022-09-26T16:06:02.882Z,13.66
2022-09-26T16:08:39.008Z,13.60
2022-09-26T16:11:08.865Z,13.62
2022-09-26T16:13:41.619Z,13.60
2022-09-26T16:16:19.120Z,13.59
2022-09-26T16:18:53.152Z,13.61
2022-09-26T16:21:22.518Z,13.67
2022-09-26T16:23:53.267Z,13.63
2022-09-26T16:26:43.047Z,13.57
2022-09-26T16:29:11.143Z,13.54
2022-09-26T16:31:46.969Z,13.58
2022-09-26T16:34:21.896Z,13.53
2022-09-26T16:36:50.730Z,13.52
2022-09-26T16:39:22.511Z,13.59
2022-09-26T16:42:02.449Z,13.60
2022-09-26T16:44:36.003Z,13.53
2022-09-26T16:47:07.435Z,13.50
2022-09-26T16:49:45.565Z,13.46
2022-09-26T16:52:31.267Z,13.42
2022-09-26T16:55:00.638Z,13.38
2022-09-26T16:57:32.030Z,13.39
2022-09-26T17:00:24.999Z,13.46
2022-09-26T17:02:52.934Z,13.39
2022-09-26T17:05:45.210Z,13.39
2022-09-26T17:08:13.110Z,13.38
2022-09-26T17:10:43.360Z,13.37
2022-09-26T17:13:16.951Z,13.46
2022-09-26T17:15:48.509Z,13.47
2022-09-26T17:18:21.084Z,13.49
2022-09-26T17:20:49.982Z,13.47
2022-09-26T17:23:38.616Z,13.39
2022-09-26T17:26:13.151Z,13.41
2022-09-26T17:28:43.511Z,13.35
2022-09-26T17:31:19.443Z,13.25
2022-09-26T17:33:49.837Z,13.25
2022-09-26T17:36:23.668Z,13.30
2022-09-26T17:38:51.886Z,13.31
2022-09-26T17:41:19.888Z,13.24
2022-09-26T17:43:50.055Z,13.23
2022-09-26T17:46:17.990Z,13.11
2022-09-26T17:48:46.209Z,13.08
2022-09-26T17:51:15.075Z,12.90
2022-09-26T17:53:50.509Z,12.77
2022-09-26T17:56:20.200Z,12.54
2022-09-26T17:58:51.753Z,12.66
2022-09-26T18:01:23.947Z,12.47
2022-09-26T18:03:55.507Z,12.38
2022-09-26T18:06:25.842Z,12.36
2022-09-26T18:08:54.960Z,12.24
2022-09-26T18:11:22.903Z,12.28
2022-09-26T18:13:54.597Z,12.16
2022-09-26T18:16:23.347Z,12.07
2022-09-26T18:18:51.735Z,12.11
2022-09-26T18:21:20.316Z,12.08
2022-09-26T18:23:52.631Z,12.07
2022-09-26T18:26:29.092Z,12.13
2022-09-26T18:29:00.262Z,11.94
2022-09-26T18:31:31.860Z,11.77
2022-09-26T18:34:03.037Z,11.75
2022-09-26T18:36:33.180Z,11.70
2022-09-26T18:39:01.498Z,11.67
2022-09-26T18:41:29.596Z,11.70
2022-09-26T18:44:02.771Z,11.79
2022-09-26T18:46:31.458Z,11.71
2022-09-26T18:49:06.203Z,11.66
2022-09-26T18:51:35.064Z,11.70
2022-09-26T18:54:10.751Z,11.66
2022-09-26T18:56:56.885Z,11.63
2022-09-26T18:59:29.007Z,11.61
2022-09-26T19:01:59.458Z,11.58
2022-09-26T19:04:30.323Z,11.59
2022-09-26T19:07:01.893Z,11.50
2022-09-26T19:09:33.946Z,11.52
2022-09-26T19:12:03.175Z,11.47
2022-09-26T19:14:33.149Z,11.50
2022-09-26T19:17:01.377Z,11.50
2022-09-26T19:19:32.485Z,11.47
2022-09-26T19:22:07.981Z,11.48
2022-09-26T19:24:39.625Z,11.48
2022-09-26T19:27:10.479Z,11.57
2022-09-26T19:29:43.556Z,11.61
2022-09-26T19:32:18.227Z,11.62
2022-09-26T19:34:50.999Z,11.74
2022-09-26T19:37:20.251Z,11.73
2022-09-26T19:39:48.218Z,11.80
2022-09-26T19:42:16.313Z,11.86
2022-09-26T19:44:46.023Z,11.76
2022-09-26T19:47:20.029Z,11.76
2022-09-26T19:49:49.334Z,11.78
2022-09-26T19:52:19.683Z,11.81
2022-09-26T19:54:50.438Z,11.84
2022-09-26T19:57:19.964Z,11.87
2022-09-26T19:59:50.134Z,12.02
2022-09-26T20:02:20.601Z,11.90
2022-09-26T20:04:49.856Z,11.87
2022-09-26T20:07:21.003Z,11.96
2022-09-26T20:09:49.110Z,11.86
2022-09-26T20:12:17.266Z,11.90
2022-09-26T20:14:47.867Z,11.92
2022-09-26T20:17:24.324Z,11.81
2022-09-26T20:19:58.640Z,11.84
2022-09-26T20:22:27.397Z,11.78
2022-09-26T20:24:56.168Z,11.77
2022-09-26T20:27:28.114Z,11.72
2022-09-26T20:30:14.302Z,11.77
2022-09-26T20:32:43.934Z,11.71
2022-09-26T20:35:15.633Z,11.67
2022-09-26T20:37:45.514Z,11.82
2022-09-26T20:40:18.607Z,11.75
2022-09-26T20:42:56.045Z,11.70
2022-09-26T20:45:29.611Z,11.69
2022-09-26T20:47:59.640Z,11.72
2022-09-26T20:50:34.228Z,11.64
2022-09-26T20:53:02.720Z,11.69
2022-09-26T20:55:32.479Z,11.64
2022-09-26T20:58:03.774Z,11.63
2022-09-26T21:00:32.464Z,11.67
2022-09-26T21:03:02.052Z,11.69
2022-09-26T21:05:30.237Z,11.66
2022-09-26T21:08:00.137Z,11.70
2022-09-26T21:10:30.224Z,11.71
2022-09-26T21:12:58.956Z,11.71
2022-09-26T21:15:29.050Z,11.68
2022-09-26T21:17:57.471Z,11.65
2022-09-26T21:20:29.309Z,11.66
2022-09-26T21:23:10.484Z,11.72
2022-09-26T21:25:41.086Z,11.67
2022-09-26T21:28:22.868Z,11.66
2022-09-26T21:30:52.121Z,11.69
2022-09-26T21:33:21.871Z,11.72
2022-09-26T21:35:51.627Z,11.67
2022-09-26T21:38:21.528Z,11.65
2022-09-26T21:40:55.117Z,11.64
2022-09-26T21:43:26.825Z,11.66
2022-09-26T21:45:54.736Z,11.64
2022-09-26T21:48:23.339Z,11.60
2022-09-26T21:50:58.086Z,11.59
2022-09-26T21:53:32.072Z,11.55
2022-09-26T21:56:07.377Z,11.46
2022-09-26T21:58:39.219Z,11.33
2022-09-26T22:01:07.254Z,11.22
2022-09-26T22:03:35.756Z,11.16
2022-09-26T22:06:07.505Z,11.02
2022-09-26T22:08:35.669Z,11.01
2022-09-26T22:11:04.066Z,10.94
2022-09-26T22:13:33.082Z,10.87
2022-09-26T22:16:06.051Z,10.83
2022-09-26T22:18:34.830Z,10.84
2022-09-26T22:21:04.747Z,10.78
2022-09-26T22:23:34.200Z,10.75
2022-09-26T22:26:02.833Z,10.70
2022-09-26T22:28:30.940Z,10.71
2022-09-26T22:31:02.404Z,10.69
2022-09-26T22:33:30.590Z,10.69
2022-09-26T22:35:58.763Z,10.68
2022-09-26T22:38:26.805Z,10.71
2022-09-26T22:41:00.126Z,10.63
2022-09-26T22:43:28.470Z,10.63
2022-09-26T22:46:02.036Z,10.63
2022-09-26T22:48:32.170Z,10.63
2022-09-26T22:51:00.355Z,10.65
2022-09-26T22:53:28.611Z,10.64
2022-09-26T22:55:58.173Z,10.62
2022-09-26T22:58:27.543Z,10.63
2022-09-26T23:00:55.698Z,10.64
2022-09-26T23:03:23.873Z,10.63
2022-09-26T23:05:51.804Z,10.64
2022-09-26T23:08:19.767Z,10.63
2022-09-26T23:10:50.720Z,10.66
2022-09-26T23:13:19.096Z,10.65
2022-09-26T23:15:48.751Z,10.66
2022-09-26T23:18:16.743Z,10.62
2022-09-26T23:20:45.285Z,10.62
2022-09-26T23:23:14.763Z,10.65
2022-09-26T23:25:47.182Z,10.65
2022-09-26T23:28:15.446Z,10.63
2022-09-26T23:30:44.151Z,10.68
2022-09-26T23:33:14.230Z,10.67
2022-09-26T23:35:42.109Z,10.67
2022-09-26T23:38:10.089Z,10.63
2022-09-26T23:40:38.926Z,10.62
2022-09-26T23:43:06.829Z,10.63
2022-09-26T23:45:36.670Z,10.62
2022-09-26T23:48:04.754Z,10.65
2022-09-26T23:50:34.781Z,10.67
2022-09-26T23:53:06.444Z,10.68
2022-09-26T23:55:35.553Z,10.68
2022-09-26T23:58:03.689Z,10.66
